Observations for SOUTHEND-ON-SEA, United Kingdom (EGMC)

EGMC 191320Z 24014KT 9999 FEW032 10/02 Q1019
EGMC 191250Z 24015KT 9999 FEW030 10/03 Q1019
EGMC 191220Z 26014KT 9999 FEW030 10/03 Q1019
EGMC 191150Z 26012KT 9999 FEW030 10/03 Q1019
EGMC 191120Z 24011KT 9999 FEW020 09/04 Q1019
EGMC 191050Z 25012KT 9999 FEW020 09/04 Q1019
EGMC 191020Z 25009KT 9999 FEW016 08/04 Q1019
EGMC 190950Z 24009KT 9999 FEW016 08/04 Q1019
EGMC 190920Z 23010KT CAVOK 06/04 Q1019  
EGMC 190850Z 23008KT CAVOK 06/03 Q1019  
EGMC 190820Z 24009KT CAVOK 05/03 Q1019  
EGMC 190750Z 24008KT CAVOK 02/02 Q1018  
EGMC 190720Z 23007KT CAVOK 03/02 Q1018  
EGMC 190650Z 23007KT CAVOK 02/00 Q1018  
EGMC 190620Z 23007KT CAVOK 03/02 Q1017  
EGMC 190550Z 23008KT 9999 FEW030 04/02 Q1017
EGMC 190520Z 24008KT 9999 FEW030 05/03 Q1017
EGMC 182250Z 22008KT CAVOK 05/03 Q1016  
EGMC 182220Z 22008KT CAVOK 05/03 Q1016  
EGMC 182120Z 24008KT CAVOK 05/03 Q1016  
EGMC 182050Z 24009KT CAVOK 06/04 Q1015  
EGMC 182020Z 24009KT CAVOK 06/04 Q1015  
EGMC 181950Z 24011KT 9999 FEW030 08/05 Q1015
EGMC 181920Z 24010KT 9999 FEW030 08/05 Q1015
EGMC 181850Z 22013KT 9999 SCT032 08/04 Q1014
EGMC 181820Z 23010KT 9999 SCT022 08/04 Q1014
EGMC 181750Z 22008KT 9999 SCT022 08/05 Q1014
EGMC 181720Z 22010KT 9999 SCT022 08/05 Q1014
EGMC 181650Z 21009KT 9999 VCSH FEW010 BKN022 09/05 Q1014
EGMC 181620Z 21008KT 9999 VCSH FEW010 BKN022 09/05 Q1014
EGMC 181550Z 22008KT 9999 FEW010 BKN022 09/05 Q1014 
EGMC 181520Z 24009KT 9999 -RA BKN021 09/05 Q1014
EGMC 181450Z 26007KT 9999 BKN026 09/05 Q1014
EGMC 181420Z 27011KT 9999 FEW010 BKN021 10/06 Q1014 
EGMC 181350Z 25011KT 9999 -RA FEW010 BKN018 10/06 Q1014 
EGMC 181320Z 23010KT 9999 FEW013 SCT020 10/06 Q1014 
EGMC 181250Z 23009KT 9999 FEW008 BKN035 10/07 Q1015